sensor_id;sensor_type;location;lat;lon;timestamp;P1;durP1;ratioP1;P2;durP2;ratioP2
70757;SDS011;59316;52.964;7.102;2022-10-16T00:00:53;7.33;;;2.00;;
70757;SDS011;59316;52.964;7.102;2022-10-16T00:05:58;14.85;;;2.50;;
70757;SDS011;59316;52.964;7.102;2022-10-16T00:11:02;7.85;;;2.30;;
70757;SDS011;59316;52.964;7.102;2022-10-16T00:16:09;4.07;;;1.83;;
70757;SDS011;59316;52.964;7.102;2022-10-16T00:21:17;7.72;;;2.45;;
70757;SDS011;59316;52.964;7.102;2022-10-16T00:26:24;8.77;;;2.80;;
70757;SDS011;59316;52.964;7.102;2022-10-16T00:31:27;9.25;;;2.65;;
70757;SDS011;59316;52.964;7.102;2022-10-16T00:36:29;10.10;;;2.40;;
70757;SDS011;59316;52.964;7.102;2022-10-16T00:41:32;7.13;;;1.90;;
70757;SDS011;59316;52.964;7.102;2022-10-16T00:51:41;4.47;;;1.90;;
70757;SDS011;59316;52.964;7.102;2022-10-16T00:56:47;4.95;;;2.50;;
70757;SDS011;59316;52.964;7.102;2022-10-16T01:01:50;7.18;;;2.33;;
70757;SDS011;59316;52.964;7.102;2022-10-16T01:06:58;8.40;;;2.60;;
70757;SDS011;59316;52.964;7.102;2022-10-16T01:12:31;9.38;;;3.15;;
70757;SDS011;59316;52.964;7.102;2022-10-16T01:17:53;6.93;;;3.25;;
70757;SDS011;59316;52.964;7.102;2022-10-16T01:23:21;10.32;;;2.55;;
70757;SDS011;59316;52.964;7.102;2022-10-16T01:28:44;5.78;;;2.90;;
70757;SDS011;59316;52.964;7.102;2022-10-16T01:33:48;7.65;;;2.55;;
70757;SDS011;59316;52.964;7.102;2022-10-16T01:39:00;5.40;;;2.40;;
70757;SDS011;59316;52.964;7.102;2022-10-16T01:44:05;5.93;;;2.42;;
70757;SDS011;59316;52.964;7.102;2022-10-16T01:49:12;4.60;;;2.53;;
70757;SDS011;59316;52.964;7.102;2022-10-16T01:54:15;2.92;;;2.10;;
70757;SDS011;59316;52.964;7.102;2022-10-16T01:59:21;4.25;;;2.15;;
70757;SDS011;59316;52.964;7.102;2022-10-16T02:04:28;9.13;;;2.60;;
70757;SDS011;59316;52.964;7.102;2022-10-16T02:09:34;4.47;;;2.05;;
70757;SDS011;59316;52.964;7.102;2022-10-16T02:14:37;4.78;;;2.33;;
70757;SDS011;59316;52.964;7.102;2022-10-16T02:19:40;8.55;;;1.80;;
70757;SDS011;59316;52.964;7.102;2022-10-16T02:24:51;10.70;;;2.30;;
70757;SDS011;59316;52.964;7.102;2022-10-16T02:30:00;5.07;;;1.77;;
70757;SDS011;59316;52.964;7.102;2022-10-16T02:35:08;8.50;;;2.30;;
70757;SDS011;59316;52.964;7.102;2022-10-16T02:40:12;6.20;;;1.98;;
70757;SDS011;59316;52.964;7.102;2022-10-16T02:45:14;3.72;;;1.55;;
70757;SDS011;59316;52.964;7.102;2022-10-16T02:50:17;3.35;;;1.83;;
70757;SDS011;59316;52.964;7.102;2022-10-16T02:55:19;2.28;;;1.70;;
70757;SDS011;59316;52.964;7.102;2022-10-16T03:00:21;6.35;;;1.90;;
70757;SDS011;59316;52.964;7.102;2022-10-16T03:05:23;5.83;;;2.03;;
70757;SDS011;59316;52.964;7.102;2022-10-16T03:10:26;3.20;;;1.80;;
70757;SDS011;59316;52.964;7.102;2022-10-16T03:15:29;4.13;;;2.03;;
70757;SDS011;59316;52.964;7.102;2022-10-16T03:20:31;4.50;;;1.90;;
70757;SDS011;59316;52.964;7.102;2022-10-16T03:25:33;1.63;;;1.50;;
70757;SDS011;59316;52.964;7.102;2022-10-16T03:30:36;6.40;;;2.00;;
70757;SDS011;59316;52.964;7.102;2022-10-16T03:35:38;4.03;;;2.10;;
70757;SDS011;59316;52.964;7.102;2022-10-16T03:40:40;3.50;;;1.80;;
70757;SDS011;59316;52.964;7.102;2022-10-16T03:45:42;5.07;;;2.22;;
70757;SDS011;59316;52.964;7.102;2022-10-16T03:50:44;4.50;;;1.90;;
70757;SDS011;59316;52.964;7.102;2022-10-16T03:55:47;4.93;;;2.40;;
70757;SDS011;59316;52.964;7.102;2022-10-16T04:00:49;4.57;;;2.42;;
70757;SDS011;59316;52.964;7.102;2022-10-16T04:05:51;7.27;;;2.57;;
70757;SDS011;59316;52.964;7.102;2022-10-16T04:10:53;3.47;;;2.33;;
70757;SDS011;59316;52.964;7.102;2022-10-16T04:15:56;7.00;;;2.75;;
70757;SDS011;59316;52.964;7.102;2022-10-16T04:21:02;5.93;;;2.50;;
70757;SDS011;59316;52.964;7.102;2022-10-16T04:26:10;5.80;;;2.50;;
70757;SDS011;59316;52.964;7.102;2022-10-16T04:31:12;5.25;;;2.47;;
70757;SDS011;59316;52.964;7.102;2022-10-16T04:36:14;5.07;;;2.47;;
70757;SDS011;59316;52.964;7.102;2022-10-16T04:41:16;4.13;;;2.33;;
70757;SDS011;59316;52.964;7.102;2022-10-16T04:46:19;5.35;;;3.00;;
70757;SDS011;59316;52.964;7.102;2022-10-16T04:51:21;8.63;;;3.25;;
70757;SDS011;59316;52.964;7.102;2022-10-16T04:56:23;5.60;;;3.27;;
70757;SDS011;59316;52.964;7.102;2022-10-16T05:01:26;5.05;;;3.42;;
70757;SDS011;59316;52.964;7.102;2022-10-16T05:06:28;6.20;;;3.30;;
70757;SDS011;59316;52.964;7.102;2022-10-16T05:11:30;5.03;;;3.28;;
70757;SDS011;59316;52.964;7.102;2022-10-16T05:16:33;7.03;;;3.22;;
70757;SDS011;59316;52.964;7.102;2022-10-16T05:21:35;10.00;;;3.58;;
70757;SDS011;59316;52.964;7.102;2022-10-16T05:26:37;5.57;;;3.58;;
70757;SDS011;59316;52.964;7.102;2022-10-16T05:31:40;6.83;;;3.70;;
70757;SDS011;59316;52.964;7.102;2022-10-16T05:36:42;7.38;;;4.82;;
70757;SDS011;59316;52.964;7.102;2022-10-16T05:41:44;7.03;;;3.77;;
70757;SDS011;59316;52.964;7.102;2022-10-16T05:46:46;7.03;;;4.67;;
70757;SDS011;59316;52.964;7.102;2022-10-16T05:51:49;9.87;;;3.80;;
70757;SDS011;59316;52.964;7.102;2022-10-16T05:56:51;7.93;;;3.95;;
70757;SDS011;59316;52.964;7.102;2022-10-16T06:01:53;8.40;;;4.10;;
70757;SDS011;59316;52.964;7.102;2022-10-16T06:06:58;6.83;;;4.13;;
70757;SDS011;59316;52.964;7.102;2022-10-16T06:12:01;6.50;;;4.00;;
70757;SDS011;59316;52.964;7.102;2022-10-16T06:17:04;9.27;;;3.83;;
70757;SDS011;59316;52.964;7.102;2022-10-16T06:22:06;5.63;;;3.70;;
70757;SDS011;59316;52.964;7.102;2022-10-16T06:27:08;7.28;;;3.88;;
70757;SDS011;59316;52.964;7.102;2022-10-16T06:32:11;7.50;;;3.10;;
70757;SDS011;59316;52.964;7.102;2022-10-16T06:37:14;4.53;;;2.83;;
70757;SDS011;59316;52.964;7.102;2022-10-16T06:42:16;6.97;;;3.15;;
70757;SDS011;59316;52.964;7.102;2022-10-16T06:47:19;6.25;;;2.92;;
70757;SDS011;59316;52.964;7.102;2022-10-16T06:52:21;6.13;;;3.13;;
70757;SDS011;59316;52.964;7.102;2022-10-16T06:57:24;2.72;;;2.13;;
70757;SDS011;59316;52.964;7.102;2022-10-16T07:02:26;4.80;;;2.83;;
70757;SDS011;59316;52.964;7.102;2022-10-16T07:07:29;7.90;;;2.45;;
70757;SDS011;59316;52.964;7.102;2022-10-16T07:12:31;3.13;;;2.07;;
70757;SDS011;59316;52.964;7.102;2022-10-16T07:17:33;4.53;;;2.30;;
70757;SDS011;59316;52.964;7.102;2022-10-16T07:22:36;5.13;;;2.42;;
70757;SDS011;59316;52.964;7.102;2022-10-16T07:27:38;4.38;;;2.05;;
70757;SDS011;59316;52.964;7.102;2022-10-16T07:32:40;5.80;;;2.13;;
70757;SDS011;59316;52.964;7.102;2022-10-16T07:37:45;6.10;;;2.53;;
70757;SDS011;59316;52.964;7.102;2022-10-16T07:42:48;5.68;;;2.30;;
70757;SDS011;59316;52.964;7.102;2022-10-16T07:47:50;4.03;;;1.85;;
70757;SDS011;59316;52.964;7.102;2022-10-16T07:52:52;2.40;;;1.75;;
70757;SDS011;59316;52.964;7.102;2022-10-16T07:57:55;3.47;;;2.30;;
70757;SDS011;59316;52.964;7.102;2022-10-16T08:02:57;4.07;;;1.90;;
70757;SDS011;59316;52.964;7.102;2022-10-16T08:08:01;3.40;;;2.13;;
70757;SDS011;59316;52.964;7.102;2022-10-16T08:13:03;4.32;;;1.77;;
70757;SDS011;59316;52.964;7.102;2022-10-16T08:18:06;5.80;;;1.90;;
70757;SDS011;59316;52.964;7.102;2022-10-16T08:23:11;8.13;;;2.47;;
70757;SDS011;59316;52.964;7.102;2022-10-16T08:28:14;5.18;;;1.63;;
70757;SDS011;59316;52.964;7.102;2022-10-16T08:33:16;4.10;;;2.13;;
70757;SDS011;59316;52.964;7.102;2022-10-16T08:38:18;2.40;;;1.60;;
70757;SDS011;59316;52.964;7.102;2022-10-16T08:43:43;5.40;;;1.70;;
70757;SDS011;59316;52.964;7.102;2022-10-16T08:48:51;3.17;;;1.38;;
70757;SDS011;59316;52.964;7.102;2022-10-16T08:53:56;4.80;;;1.33;;
70757;SDS011;59316;52.964;7.102;2022-10-16T08:59:00;3.15;;;2.15;;
70757;SDS011;59316;52.964;7.102;2022-10-16T09:20:29;4.05;;;1.23;;
70757;SDS011;59316;52.964;7.102;2022-10-16T09:25:38;3.35;;;1.38;;
70757;SDS011;59316;52.964;7.102;2022-10-16T09:30:43;8.52;;;1.27;;
70757;SDS011;59316;52.964;7.102;2022-10-16T09:40:50;5.50;;;1.17;;
70757;SDS011;59316;52.964;7.102;2022-10-16T09:46:01;9.77;;;1.48;;
70757;SDS011;59316;52.964;7.102;2022-10-16T09:51:06;6.45;;;1.10;;
70757;SDS011;59316;52.964;7.102;2022-10-16T09:56:29;6.78;;;1.42;;
70757;SDS011;59316;52.964;7.102;2022-10-16T10:01:36;3.75;;;1.00;;
70757;SDS011;59316;52.964;7.102;2022-10-16T10:06:49;6.65;;;1.40;;
70757;SDS011;59316;52.964;7.102;2022-10-16T10:12:00;4.05;;;1.20;;
70757;SDS011;59316;52.964;7.102;2022-10-16T11:15:57;8.60;;;1.50;;
70757;SDS011;59316;52.964;7.102;2022-10-16T11:21:07;3.78;;;1.38;;
70757;SDS011;59316;52.964;7.102;2022-10-16T11:26:16;6.97;;;1.40;;
70757;SDS011;59316;52.964;7.102;2022-10-16T11:31:32;5.28;;;0.95;;
70757;SDS011;59316;52.964;7.102;2022-10-16T11:36:41;5.93;;;1.10;;
70757;SDS011;59316;52.964;7.102;2022-10-16T12:03:59;4.88;;;1.08;;
70757;SDS011;59316;52.964;7.102;2022-10-16T12:09:23;6.25;;;1.13;;
70757;SDS011;59316;52.964;7.102;2022-10-16T12:14:40;4.88;;;1.27;;
70757;SDS011;59316;52.964;7.102;2022-10-16T12:25:28;4.60;;;1.10;;
70757;SDS011;59316;52.964;7.102;2022-10-16T12:30:35;4.07;;;1.17;;
70757;SDS011;59316;52.964;7.102;2022-10-16T12:35:43;8.40;;;1.70;;
70757;SDS011;59316;52.964;7.102;2022-10-16T12:40:59;10.65;;;1.50;;
70757;SDS011;59316;52.964;7.102;2022-10-16T12:51:24;7.03;;;2.15;;
70757;SDS011;59316;52.964;7.102;2022-10-16T12:56:36;7.90;;;1.23;;
70757;SDS011;59316;52.964;7.102;2022-10-16T13:07:42;6.78;;;1.40;;
70757;SDS011;59316;52.964;7.102;2022-10-16T13:12:50;7.65;;;1.55;;
70757;SDS011;59316;52.964;7.102;2022-10-16T13:28:53;5.60;;;1.00;;
70757;SDS011;59316;52.964;7.102;2022-10-16T13:33:59;5.55;;;1.48;;
70757;SDS011;59316;52.964;7.102;2022-10-16T13:39:11;4.97;;;1.20;;
70757;SDS011;59316;52.964;7.102;2022-10-16T13:44:21;8.10;;;1.55;;
70757;SDS011;59316;52.964;7.102;2022-10-16T13:49:23;7.40;;;1.10;;
70757;SDS011;59316;52.964;7.102;2022-10-16T13:54:26;5.78;;;1.30;;
70757;SDS011;59316;52.964;7.102;2022-10-16T13:59:36;9.98;;;1.20;;
70757;SDS011;59316;52.964;7.102;2022-10-16T14:04:39;9.93;;;1.77;;
70757;SDS011;59316;52.964;7.102;2022-10-16T14:09:41;5.38;;;1.20;;
70757;SDS011;59316;52.964;7.102;2022-10-16T14:14:45;7.32;;;1.58;;
70757;SDS011;59316;52.964;7.102;2022-10-16T14:19:50;3.40;;;1.25;;
70757;SDS011;59316;52.964;7.102;2022-10-16T14:24:58;11.18;;;1.40;;
70757;SDS011;59316;52.964;7.102;2022-10-16T14:35:26;5.13;;;1.23;;
70757;SDS011;59316;52.964;7.102;2022-10-16T14:40:32;4.32;;;1.25;;
70757;SDS011;59316;52.964;7.102;2022-10-16T14:45:37;9.88;;;1.48;;
70757;SDS011;59316;52.964;7.102;2022-10-16T14:50:43;8.52;;;1.30;;
70757;SDS011;59316;52.964;7.102;2022-10-16T14:55:46;5.00;;;1.27;;
70757;SDS011;59316;52.964;7.102;2022-10-16T15:00:49;4.75;;;1.40;;
70757;SDS011;59316;52.964;7.102;2022-10-16T15:05:51;6.37;;;1.37;;
70757;SDS011;59316;52.964;7.102;2022-10-16T15:10:53;7.13;;;1.30;;
70757;SDS011;59316;52.964;7.102;2022-10-16T15:15:56;9.25;;;1.77;;
70757;SDS011;59316;52.964;7.102;2022-10-16T15:20:58;7.50;;;1.50;;
70757;SDS011;59316;52.964;7.102;2022-10-16T15:26:00;6.93;;;1.67;;
70757;SDS011;59316;52.964;7.102;2022-10-16T15:31:02;6.07;;;1.60;;
70757;SDS011;59316;52.964;7.102;2022-10-16T15:36:06;9.57;;;2.10;;
70757;SDS011;59316;52.964;7.102;2022-10-16T15:41:08;10.65;;;1.90;;
70757;SDS011;59316;52.964;7.102;2022-10-16T15:46:11;5.37;;;1.73;;
70757;SDS011;59316;52.964;7.102;2022-10-16T15:51:14;8.25;;;1.55;;
70757;SDS011;59316;52.964;7.102;2022-10-16T15:56:17;6.40;;;1.33;;
70757;SDS011;59316;52.964;7.102;2022-10-16T16:01:20;4.80;;;1.67;;
70757;SDS011;59316;52.964;7.102;2022-10-16T16:06:22;8.95;;;1.35;;
70757;SDS011;59316;52.964;7.102;2022-10-16T16:11:25;4.80;;;1.40;;
70757;SDS011;59316;52.964;7.102;2022-10-16T16:16:27;9.50;;;1.92;;
70757;SDS011;59316;52.964;7.102;2022-10-16T16:21:29;6.30;;;2.07;;
70757;SDS011;59316;52.964;7.102;2022-10-16T16:26:31;6.30;;;1.43;;
70757;SDS011;59316;52.964;7.102;2022-10-16T16:31:34;6.13;;;1.52;;
70757;SDS011;59316;52.964;7.102;2022-10-16T16:36:36;6.20;;;2.13;;
70757;SDS011;59316;52.964;7.102;2022-10-16T16:41:38;11.10;;;1.90;;
70757;SDS011;59316;52.964;7.102;2022-10-16T16:46:41;6.80;;;1.80;;
70757;SDS011;59316;52.964;7.102;2022-10-16T16:51:45;5.63;;;2.03;;
70757;SDS011;59316;52.964;7.102;2022-10-16T16:56:47;11.38;;;2.20;;
70757;SDS011;59316;52.964;7.102;2022-10-16T17:01:50;7.13;;;2.45;;
70757;SDS011;59316;52.964;7.102;2022-10-16T17:06:57;9.25;;;2.13;;
70757;SDS011;59316;52.964;7.102;2022-10-16T17:12:00;5.40;;;2.40;;
70757;SDS011;59316;52.964;7.102;2022-10-16T17:17:03;6.32;;;2.30;;
70757;SDS011;59316;52.964;7.102;2022-10-16T17:22:05;6.88;;;2.47;;
70757;SDS011;59316;52.964;7.102;2022-10-16T17:27:07;6.53;;;2.60;;
70757;SDS011;59316;52.964;7.102;2022-10-16T17:32:10;12.55;;;3.35;;
70757;SDS011;59316;52.964;7.102;2022-10-16T17:37:12;14.50;;;3.58;;
70757;SDS011;59316;52.964;7.102;2022-10-16T17:42:18;13.52;;;3.13;;
70757;SDS011;59316;52.964;7.102;2022-10-16T17:47:20;10.97;;;4.43;;
70757;SDS011;59316;52.964;7.102;2022-10-16T17:52:22;8.73;;;3.83;;
70757;SDS011;59316;52.964;7.102;2022-10-16T17:57:25;7.30;;;3.90;;
70757;SDS011;59316;52.964;7.102;2022-10-16T18:02:28;13.38;;;4.88;;
70757;SDS011;59316;52.964;7.102;2022-10-16T18:07:31;10.73;;;3.58;;
70757;SDS011;59316;52.964;7.102;2022-10-16T18:12:33;9.90;;;4.20;;
70757;SDS011;59316;52.964;7.102;2022-10-16T18:17:36;14.90;;;4.20;;
70757;SDS011;59316;52.964;7.102;2022-10-16T18:22:39;13.73;;;3.42;;
70757;SDS011;59316;52.964;7.102;2022-10-16T18:27:41;11.93;;;3.67;;
70757;SDS011;59316;52.964;7.102;2022-10-16T18:32:43;5.85;;;3.22;;
70757;SDS011;59316;52.964;7.102;2022-10-16T18:37:46;8.70;;;3.40;;
70757;SDS011;59316;52.964;7.102;2022-10-16T18:42:48;10.53;;;3.97;;
70757;SDS011;59316;52.964;7.102;2022-10-16T18:47:50;8.03;;;3.43;;
70757;SDS011;59316;52.964;7.102;2022-10-16T18:52:53;14.67;;;5.47;;
70757;SDS011;59316;52.964;7.102;2022-10-16T18:57:55;17.33;;;3.90;;
70757;SDS011;59316;52.964;7.102;2022-10-16T19:02:57;12.15;;;4.53;;
70757;SDS011;59316;52.964;7.102;2022-10-16T19:08:00;19.13;;;7.77;;
70757;SDS011;59316;52.964;7.102;2022-10-16T19:13:02;18.17;;;8.77;;
70757;SDS011;59316;52.964;7.102;2022-10-16T19:18:08;11.68;;;6.22;;
70757;SDS011;59316;52.964;7.102;2022-10-16T19:23:11;15.85;;;5.90;;
70757;SDS011;59316;52.964;7.102;2022-10-16T19:28:13;11.40;;;6.43;;
70757;SDS011;59316;52.964;7.102;2022-10-16T19:33:16;18.45;;;7.47;;
70757;SDS011;59316;52.964;7.102;2022-10-16T19:38:19;23.65;;;6.65;;
70757;SDS011;59316;52.964;7.102;2022-10-16T19:43:21;17.07;;;6.73;;
70757;SDS011;59316;52.964;7.102;2022-10-16T19:48:23;20.40;;;7.60;;
70757;SDS011;59316;52.964;7.102;2022-10-16T19:53:31;15.00;;;8.63;;
70757;SDS011;59316;52.964;7.102;2022-10-16T19:58:33;16.30;;;7.13;;
70757;SDS011;59316;52.964;7.102;2022-10-16T20:03:36;14.68;;;5.80;;
70757;SDS011;59316;52.964;7.102;2022-10-16T20:08:39;17.07;;;7.40;;
70757;SDS011;59316;52.964;7.102;2022-10-16T20:13:42;18.30;;;8.50;;
70757;SDS011;59316;52.964;7.102;2022-10-16T20:18:45;10.98;;;6.93;;
70757;SDS011;59316;52.964;7.102;2022-10-16T20:23:49;17.67;;;7.25;;
70757;SDS011;59316;52.964;7.102;2022-10-16T20:28:51;15.17;;;7.10;;
70757;SDS011;59316;52.964;7.102;2022-10-16T20:33:56;15.57;;;6.57;;
70757;SDS011;59316;52.964;7.102;2022-10-16T20:38:59;15.80;;;6.43;;
70757;SDS011;59316;52.964;7.102;2022-10-16T20:44:02;17.60;;;7.03;;
70757;SDS011;59316;52.964;7.102;2022-10-16T20:49:05;11.45;;;6.68;;
70757;SDS011;59316;52.964;7.102;2022-10-16T20:54:12;16.48;;;6.97;;
70757;SDS011;59316;52.964;7.102;2022-10-16T20:59:14;16.42;;;6.63;;
70757;SDS011;59316;52.964;7.102;2022-10-16T21:04:16;16.25;;;6.38;;
70757;SDS011;59316;52.964;7.102;2022-10-16T21:09:19;10.53;;;6.00;;
70757;SDS011;59316;52.964;7.102;2022-10-16T21:14:21;12.15;;;5.43;;
70757;SDS011;59316;52.964;7.102;2022-10-16T21:19:23;15.77;;;5.80;;
70757;SDS011;59316;52.964;7.102;2022-10-16T21:24:25;13.60;;;6.03;;
70757;SDS011;59316;52.964;7.102;2022-10-16T21:29:28;15.90;;;6.20;;
70757;SDS011;59316;52.964;7.102;2022-10-16T21:34:30;17.08;;;7.05;;
70757;SDS011;59316;52.964;7.102;2022-10-16T21:39:32;16.42;;;6.90;;
70757;SDS011;59316;52.964;7.102;2022-10-16T21:44:34;11.82;;;6.38;;
70757;SDS011;59316;52.964;7.102;2022-10-16T21:49:37;15.60;;;7.53;;
70757;SDS011;59316;52.964;7.102;2022-10-16T21:54:39;17.02;;;7.78;;
70757;SDS011;59316;52.964;7.102;2022-10-16T21:59:41;15.50;;;6.07;;
70757;SDS011;59316;52.964;7.102;2022-10-16T22:04:43;18.38;;;6.97;;
70757;SDS011;59316;52.964;7.102;2022-10-16T22:09:45;23.90;;;7.25;;
70757;SDS011;59316;52.964;7.102;2022-10-16T22:14:48;14.90;;;6.80;;
70757;SDS011;59316;52.964;7.102;2022-10-16T22:19:50;13.60;;;6.80;;
70757;SDS011;59316;52.964;7.102;2022-10-16T22:24:52;15.55;;;6.07;;
70757;SDS011;59316;52.964;7.102;2022-10-16T22:29:55;15.20;;;6.18;;
70757;SDS011;59316;52.964;7.102;2022-10-16T22:34:57;16.83;;;7.10;;
70757;SDS011;59316;52.964;7.102;2022-10-16T22:39:59;15.98;;;6.70;;
70757;SDS011;59316;52.964;7.102;2022-10-16T22:45:02;17.23;;;7.50;;
70757;SDS011;59316;52.964;7.102;2022-10-16T22:50:04;16.30;;;6.43;;
70757;SDS011;59316;52.964;7.102;2022-10-16T22:55:07;13.25;;;6.38;;
70757;SDS011;59316;52.964;7.102;2022-10-16T23:00:11;16.60;;;6.27;;
70757;SDS011;59316;52.964;7.102;2022-10-16T23:05:15;22.30;;;6.72;;
70757;SDS011;59316;52.964;7.102;2022-10-16T23:10:17;12.95;;;5.88;;
70757;SDS011;59316;52.964;7.102;2022-10-16T23:15:20;14.47;;;6.00;;
70757;SDS011;59316;52.964;7.102;2022-10-16T23:20:22;14.70;;;5.82;;
70757;SDS011;59316;52.964;7.102;2022-10-16T23:25:24;15.87;;;6.80;;
70757;SDS011;59316;52.964;7.102;2022-10-16T23:30:27;17.73;;;6.72;;
70757;SDS011;59316;52.964;7.102;2022-10-16T23:35:29;13.40;;;6.13;;
70757;SDS011;59316;52.964;7.102;2022-10-16T23:40:31;10.38;;;6.43;;
70757;SDS011;59316;52.964;7.102;2022-10-16T23:45:34;13.33;;;6.80;;
70757;SDS011;59316;52.964;7.102;2022-10-16T23:50:36;18.20;;;7.07;;
70757;SDS011;59316;52.964;7.102;2022-10-16T23:55:38;14.60;;;6.63;;
